Time;durP1;ratioP1;P1;durP2;ratioP2;P2;SDS_P1;SDS_P2;PMS_P1;PMS_P2;Temp;Humidity;BMP_temperature;BMP_pressure;BME280_temperature;BME280_humidity;BME280_pressure;Samples;Min_cycle;Max_cycle;Signal;HPM_P1;HPM_P2
2021/12/22 00:03:59;;;;;;;16.25;7.65;;;-2.00;99.90;;;;;;6741719;88;20206;-76
2021/12/22 00:13:59;;;;;;;17.77;8.35;;;-2.00;99.90;;;;;;6739374;88;20194;-76
2021/12/22 00:24:00;;;;;;;20.40;8.80;;;-2.20;99.90;;;;;;6744823;88;20220;-75
2021/12/22 00:34:01;;;;;;;23.38;9.63;;;-2.30;99.90;;;;;;6740178;88;20324;-77
2021/12/22 00:44:01;;;;;;;25.75;10.18;;;-2.50;99.90;;;;;;6737224;88;20232;-76
2021/12/22 00:54:02;;;;;;;34.05;11.38;;;-2.50;99.90;;;;;;6740458;88;20690;-76
2021/12/22 01:04:02;;;;;;;29.33;11.50;;;-2.60;99.90;;;;;;6740287;88;20198;-75
2021/12/22 01:14:04;;;;;;;33.60;12.10;;;-2.60;99.90;;;;;;6742789;88;20535;-76
2021/12/22 01:24:16;;;;;;;29.85;11.43;;;-2.60;99.90;;;;;;6742419;88;20213;-76
2021/12/22 01:34:16;;;;;;;30.75;11.60;;;-2.70;99.90;;;;;;6742607;88;20169;-76
2021/12/22 01:44:45;;;;;;;29.35;11.55;;;-2.70;99.90;;;;;;6740912;88;20275;-76
2021/12/22 01:55:04;;;;;;;31.23;11.15;;;-3.00;99.90;;;;;;6735410;88;20316;-76
2021/12/22 02:05:05;;;;;;;31.70;10.77;;;-3.00;99.90;;;;;;6736717;88;20269;-76
2021/12/22 02:15:07;;;;;;;26.95;10.88;;;-3.40;99.90;;;;;;6735734;88;20620;-76
2021/12/22 02:25:15;;;;;;;32.72;11.73;;;-3.10;99.90;;;;;;6739297;88;20795;-76
2021/12/22 02:35:17;;;;;;;31.87;11.43;;;-3.10;99.90;;;;;;6739317;88;20703;-76
2021/12/22 02:45:20;;;;;;;27.87;10.95;;;-3.40;99.90;;;;;;6736829;88;20214;-76
2021/12/22 02:55:28;;;;;;;30.15;10.88;;;-3.20;99.90;;;;;;6745236;88;20266;-77
2021/12/22 03:05:29;;;;;;;28.38;10.32;;;-3.30;99.90;;;;;;6740822;88;20216;-77
2021/12/22 03:15:30;;;;;;;29.92;10.98;;;-3.40;99.90;;;;;;6739742;88;20197;-76
2021/12/22 03:25:31;;;;;;;29.67;10.30;;;-3.30;99.90;;;;;;6739832;88;20197;-76
2021/12/22 03:35:34;;;;;;;27.33;10.60;;;-3.10;99.90;;;;;;6746769;88;20744;-76
2021/12/22 03:45:35;;;;;;;31.60;10.75;;;-3.10;99.90;;;;;;6742392;88;20211;-76
2021/12/22 03:55:35;;;;;;;32.38;11.40;;;-3.10;99.90;;;;;;6740673;88;20189;-75
2021/12/22 04:05:36;;;;;;;26.27;10.82;;;-3.10;99.90;;;;;;6738741;88;20194;-76
2021/12/22 04:15:37;;;;;;;23.38;9.18;;;-3.50;99.90;;;;;;6739083;88;20177;-76
2021/12/22 04:25:38;;;;;;;30.58;10.25;;;-3.40;99.90;;;;;;6742078;88;20203;-77
2021/12/22 04:35:39;;;;;;;25.67;9.60;;;-3.40;99.90;;;;;;6729506;88;20736;-76
2021/12/22 04:45:39;;;;;;;24.30;9.13;;;-3.50;99.90;;;;;;6722608;88;20205;-76
2021/12/22 04:55:40;;;;;;;22.10;8.55;;;-3.10;99.90;;;;;;6721821;88;20227;-75
2021/12/22 05:05:40;;;;;;;24.52;8.70;;;-3.00;99.90;;;;;;6721733;88;20487;-76
2021/12/22 05:25:44;;;;;;;20.65;8.18;;;-3.10;99.90;;;;;;6780816;87;20955;-79
2021/12/22 05:35:45;;;;;;;28.65;8.63;;;-3.00;99.90;;;;;;6732402;88;20151;-80
2021/12/22 05:45:45;;;;;;;20.00;7.90;;;-3.10;99.90;;;;;;6714891;88;20542;-81
2021/12/22 05:55:46;;;;;;;21.90;7.50;;;-3.20;99.90;;;;;;6710738;88;20223;-82
2021/12/22 06:05:46;;;;;;;23.12;8.68;;;-3.20;99.90;;;;;;6727696;88;20166;-81
2021/12/22 06:15:47;;;;;;;19.95;8.07;;;-3.30;99.90;;;;;;6760342;88;20219;-82
2021/12/22 06:25:48;;;;;;;16.92;7.07;;;-3.40;99.90;;;;;;6768069;88;20294;-79
2021/12/22 06:35:48;;;;;;;24.73;8.60;;;-3.30;99.90;;;;;;6767783;88;20461;-80
2021/12/22 06:45:49;;;;;;;21.83;8.43;;;-3.30;99.90;;;;;;6767950;88;20207;-79
2021/12/22 06:55:49;;;;;;;20.08;7.70;;;-3.30;99.90;;;;;;6713800;88;20163;-79
2021/12/22 07:05:50;;;;;;;20.65;8.07;;;-3.20;99.90;;;;;;6713025;88;20245;-80
2021/12/22 07:15:51;;;;;;;18.23;7.45;;;-3.30;99.90;;;;;;6708304;88;20191;-79
2021/12/22 07:25:52;;;;;;;27.73;9.60;;;-3.30;99.90;;;;;;6752777;88;20261;-79
2021/12/22 07:36:01;;;;;;;19.23;8.60;;;-3.30;99.90;;;;;;6762207;88;20743;-79
2021/12/22 07:46:03;;;;;;;20.88;8.63;;;-3.30;99.90;;;;;;6748917;88;20179;-81
2021/12/22 07:56:04;;;;;;;23.40;9.65;;;-3.20;99.90;;;;;;6749253;88;20218;-79
2021/12/22 08:06:05;;;;;;;25.08;8.75;;;-3.10;99.90;;;;;;6750365;88;20315;-79
2021/12/22 08:16:06;;;;;;;14.65;6.57;;;-2.90;99.90;;;;;;6730031;88;20245;-80
2021/12/22 08:26:07;;;;;;;16.17;6.95;;;-2.60;99.90;;;;;;6737375;88;20201;-80
2021/12/22 08:46:27;;;;;;;19.75;7.95;;;-2.20;99.90;;;;;;6733848;88;20549;-81
2021/12/22 08:56:29;;;;;;;18.00;7.50;;;-2.00;99.90;;;;;;6743674;88;20268;-80
2021/12/22 09:06:30;;;;;;;14.77;6.82;;;-1.90;99.90;;;;;;6738073;88;20169;-80
2021/12/22 09:16:30;;;;;;;9.95;4.53;;;-1.40;99.90;;;;;;6733303;88;20716;-79
2021/12/22 09:26:31;;;;;;;16.20;6.95;;;-1.10;99.90;;;;;;6731168;88;20193;-79
2021/12/22 09:36:32;;;;;;;14.75;6.43;;;-0.60;99.90;;;;;;6730404;88;20256;-79
2021/12/22 09:46:35;;;;;;;12.90;5.75;;;-0.50;99.90;;;;;;6730158;88;20189;-78
2021/12/22 09:56:39;;;;;;;11.75;5.43;;;0.00;99.90;;;;;;6723289;88;20611;-79
2021/12/22 10:06:39;;;;;;;10.10;4.25;;;0.00;99.90;;;;;;6723194;88;20190;-78
2021/12/22 10:16:47;;;;;;;10.63;4.62;;;0.30;99.90;;;;;;6723215;88;20222;-78
2021/12/22 10:27:01;;;;;;;8.85;4.12;;;0.50;99.90;;;;;;6733492;88;20529;-81
2021/12/22 10:37:02;;;;;;;7.50;4.00;;;0.70;99.90;;;;;;6737011;88;20211;-79
2021/12/22 10:47:14;;;;;;;13.02;5.78;;;0.70;99.90;;;;;;6732348;88;20192;-81
2021/12/22 10:57:15;;;;;;;9.35;4.68;;;1.00;99.90;;;;;;6734683;88;20243;-80
2021/12/22 11:07:27;;;;;;;12.93;4.28;;;1.20;99.90;;;;;;6729667;88;20221;-80
2021/12/22 11:17:28;;;;;;;8.90;3.83;;;1.30;99.90;;;;;;6743310;88;20192;-81
2021/12/22 11:27:29;;;;;;;13.18;6.22;;;1.50;99.90;;;;;;6746541;88;20169;-80
2021/12/22 11:37:30;;;;;;;14.13;5.53;;;1.20;99.90;;;;;;6748136;88;20664;-80
2021/12/22 11:47:35;;;;;;;12.52;6.37;;;1.60;99.90;;;;;;6744937;88;21335;-80
2021/12/22 11:57:37;;;;;;;11.95;6.45;;;2.00;99.90;;;;;;6758988;88;20200;-79
2021/12/22 12:07:41;;;;;;;10.43;5.18;;;2.40;99.90;;;;;;6758505;88;20732;-81
2021/12/22 12:28:15;;;;;;;13.60;6.15;;;2.20;99.90;;;;;;6746695;88;20193;-81
2021/12/22 12:38:22;;;;;;;7.65;4.10;;;2.40;99.90;;;;;;6748304;88;20234;-81
2021/12/22 12:48:28;;;;;;;12.07;6.45;;;2.40;99.90;;;;;;6749065;88;20682;-80
2021/12/22 12:58:28;;;;;;;10.90;5.70;;;3.60;99.90;;;;;;6749443;88;20207;-80
2021/12/22 13:08:32;;;;;;;14.02;6.45;;;3.60;99.90;;;;;;6749867;88;20212;-80
2021/12/22 13:18:36;;;;;;;11.77;5.72;;;4.60;99.90;;;;;;6749028;88;20231;-81
2021/12/22 13:28:37;;;;;;;12.18;6.32;;;4.30;99.90;;;;;;6743118;88;20182;-81
2021/12/22 13:38:41;;;;;;;13.98;7.05;;;4.80;99.90;;;;;;6745002;88;20196;-82
2021/12/22 13:49:05;;;;;;;12.27;7.07;;;5.70;99.90;;;;;;6743508;88;20181;-79
2021/12/22 13:59:14;;;;;;;16.52;8.25;;;4.70;99.90;;;;;;6736891;88;20357;-81
2021/12/22 14:09:17;;;;;;;11.65;5.70;;;4.70;99.90;;;;;;6746843;88;20218;-81
2021/12/22 14:19:20;;;;;;;10.82;5.05;;;3.50;99.90;;;;;;6748634;88;20484;-80
2021/12/22 14:29:21;;;;;;;15.88;8.30;;;2.70;99.90;;;;;;6747084;88;20184;-81
2021/12/22 14:39:39;;;;;;;18.75;8.85;;;2.40;99.90;;;;;;6729640;88;20464;-80
2021/12/22 14:49:39;;;;;;;19.50;8.45;;;2.10;99.90;;;;;;6739058;88;20510;-79
2021/12/22 15:10:01;;;;;;;19.27;9.15;;;1.60;99.90;;;;;;6762083;77;20525;-78
2021/12/22 15:20:02;;;;;;;18.33;8.73;;;1.40;99.90;;;;;;6744086;88;20210;-78
2021/12/22 15:30:04;;;;;;;19.20;7.78;;;1.30;99.90;;;;;;6740874;88;20246;-78
2021/12/22 15:40:06;;;;;;;18.55;8.10;;;1.10;99.90;;;;;;6738677;88;20207;-77
2021/12/22 15:50:08;;;;;;;16.80;7.72;;;1.00;99.90;;;;;;6742373;88;20175;-77
2021/12/22 16:00:13;;;;;;;21.95;9.10;;;0.90;99.90;;;;;;6742155;88;20245;-78
2021/12/22 16:10:15;;;;;;;13.93;7.37;;;0.70;99.90;;;;;;6745020;88;20207;-77
2021/12/22 16:20:18;;;;;;;10.13;5.22;;;0.60;99.90;;;;;;6745884;88;20201;-77
2021/12/22 16:30:20;;;;;;;7.72;3.40;;;0.50;99.90;;;;;;6745406;88;20520;-77
2021/12/22 16:40:21;;;;;;;13.30;6.30;;;0.50;99.90;;;;;;6745748;88;20162;-77
2021/12/22 16:50:24;;;;;;;13.82;6.82;;;0.40;99.90;;;;;;6745734;88;20668;-76
2021/12/22 17:00:25;;;;;;;13.70;6.50;;;0.30;99.90;;;;;;6745570;88;20240;-77
2021/12/22 17:10:25;;;;;;;9.43;4.57;;;0.30;99.90;;;;;;6745088;88;20731;-77
2021/12/22 17:20:28;;;;;;;13.25;5.00;;;0.20;99.90;;;;;;6759920;88;20169;-76
2021/12/22 17:30:29;;;;;;;18.35;8.10;;;0.20;99.90;;;;;;6762490;88;20228;-79
2021/12/22 17:40:30;;;;;;;11.35;6.47;;;0.00;99.90;;;;;;6757960;88;20675;-79
2021/12/22 17:50:30;;;;;;;18.55;7.32;;;0.00;99.90;;;;;;6763396;88;20199;-79
2021/12/22 18:00:32;;;;;;;8.40;4.15;;;0.00;99.90;;;;;;6763658;88;20524;-80
2021/12/22 18:10:34;;;;;;;18.87;9.25;;;-0.10;99.90;;;;;;6744075;88;20312;-80
2021/12/22 18:20:35;;;;;;;10.90;5.22;;;-0.10;99.90;;;;;;6750887;88;20189;-80
2021/12/22 18:30:40;;;;;;;15.70;7.37;;;-0.10;99.90;;;;;;6762313;88;20641;-79
2021/12/22 18:50:44;;;;;;;19.15;8.85;;;-0.20;99.90;;;;;;6761901;88;20206;-79
2021/12/22 19:00:47;;;;;;;11.23;6.00;;;-0.10;99.90;;;;;;6761911;88;20765;-79
2021/12/22 19:10:49;;;;;;;17.17;8.68;;;-0.20;99.90;;;;;;6756913;88;20156;-79
2021/12/22 19:20:50;;;;;;;15.50;7.50;;;-0.20;99.90;;;;;;6761286;88;20213;-79
2021/12/22 19:30:54;;;;;;;14.50;7.03;;;-0.30;99.90;;;;;;6761954;88;20181;-79
2021/12/22 19:40:55;;;;;;;22.92;10.15;;;-0.30;99.90;;;;;;6758796;88;20193;-79
2021/12/22 19:50:56;;;;;;;21.83;9.68;;;-0.30;99.90;;;;;;6763522;88;20683;-79
2021/12/22 20:00:56;;;;;;;15.20;7.47;;;-0.30;99.90;;;;;;6762169;88;20195;-79
2021/12/22 20:10:58;;;;;;;19.48;10.55;;;-0.40;99.90;;;;;;6762553;88;20543;-79
2021/12/22 20:20:59;;;;;;;21.48;10.27;;;-0.40;99.90;;;;;;6742608;88;20189;-79
2021/12/22 20:31:00;;;;;;;16.62;7.57;;;-0.40;99.90;;;;;;6763116;88;20330;-79
2021/12/22 20:41:00;;;;;;;16.12;8.30;;;-0.40;99.90;;;;;;6762462;88;20593;-79
2021/12/22 20:51:01;;;;;;;26.50;11.90;;;-0.50;99.90;;;;;;6762178;88;20194;-79
2021/12/22 21:01:45;;;;;;;20.42;9.48;;;-0.60;99.90;;;;;;6756873;77;20331;-77
2021/12/22 21:11:46;;;;;;;20.02;10.32;;;-0.60;99.90;;;;;;6767681;87;20263;-78
2021/12/22 21:21:46;;;;;;;19.27;8.10;;;-0.60;99.90;;;;;;6760896;87;20191;-78
2021/12/22 21:31:47;;;;;;;15.35;7.90;;;-0.70;99.90;;;;;;6761007;87;20668;-78
2021/12/22 21:41:48;;;;;;;21.10;9.70;;;-0.70;99.90;;;;;;6761536;88;20603;-79
2021/12/22 21:51:48;;;;;;;18.95;8.60;;;-0.80;99.90;;;;;;6760098;87;20190;-78
2021/12/22 22:01:49;;;;;;;25.40;12.05;;;-0.80;99.90;;;;;;6756012;87;20199;-78
2021/12/22 22:11:51;;;;;;;14.43;6.28;;;-0.90;99.90;;;;;;6760673;87;20551;-76
2021/12/22 22:21:54;;;;;;;24.37;10.63;;;-0.90;99.90;;;;;;6759637;87;20769;-76
2021/12/22 22:31:55;;;;;;;16.52;7.07;;;-0.80;99.90;;;;;;6759971;88;20224;-76
2021/12/22 22:41:55;;;;;;;18.25;7.62;;;-0.70;99.90;;;;;;6758936;87;20191;-76
2021/12/22 22:51:56;;;;;;;19.30;8.30;;;-0.80;99.90;;;;;;6761022;87;20251;-76
2021/12/22 23:01:58;;;;;;;22.75;8.25;;;-0.80;99.90;;;;;;6761325;87;20932;-76
2021/12/22 23:11:58;;;;;;;20.42;10.07;;;-0.90;99.90;;;;;;6759159;88;20250;-76
2021/12/22 23:21:59;;;;;;;15.65;7.40;;;-0.80;99.90;;;;;;6760019;88;20240;-78
2021/12/22 23:32:02;;;;;;;24.70;10.65;;;-0.80;99.90;;;;;;6759285;88;20539;-76
2021/12/22 23:52:10;;;;;;;13.88;5.15;;;-0.70;99.90;;;;;;6758412;87;20724;-75
